Time;durP1;ratioP1;P1;durP2;ratioP2;P2;SDS_P1;SDS_P2;PMS_P1;PMS_P2;Temp;Humidity;BMP_temperature;BMP_pressure;BME280_temperature;BME280_humidity;BME280_pressure;Samples;Min_cycle;Max_cycle;Signal;HPM_P1;HPM_P2
2024/04/09 00:02:19;;;;;;;11.50;5.40;;;18.70;81.00;;;;;;11403135;25;20346;-68
2024/04/09 00:07:24;;;;;;;14.52;5.70;;;18.70;81.30;;;;;;11358328;25;20233;-68
2024/04/09 00:12:32;;;;;;;12.38;4.88;;;18.70;81.40;;;;;;11357846;25;20250;-68
2024/04/09 00:17:44;;;;;;;15.00;5.72;;;18.70;81.60;;;;;;11357450;25;20229;-68
2024/04/09 00:22:51;;;;;;;13.82;5.53;;;18.70;81.40;;;;;;11363321;25;20234;-69
2024/04/09 00:27:59;;;;;;;12.80;4.68;;;18.60;81.80;;;;;;11363220;25;21317;-69
2024/04/09 00:33:07;;;;;;;15.90;4.88;;;18.60;82.20;;;;;;11365677;25;20373;-69
2024/04/09 00:38:14;;;;;;;15.70;5.53;;;18.60;81.90;;;;;;11366794;25;20232;-69
2024/04/09 00:43:22;;;;;;;11.35;5.10;;;18.60;83.00;;;;;;11363698;25;22328;-70
2024/04/09 00:48:28;;;;;;;12.73;5.30;;;18.50;82.30;;;;;;11378238;25;20324;-67
2024/04/09 00:53:35;;;;;;;15.85;5.10;;;18.50;82.20;;;;;;11368067;25;20350;-67
2024/04/09 00:58:45;;;;;;;16.02;5.68;;;18.50;82.40;;;;;;11362814;25;20634;-69
2024/04/09 01:03:50;;;;;;;12.85;5.43;;;18.50;82.60;;;;;;11366032;25;20311;-70
2024/04/09 01:08:56;;;;;;;15.85;4.88;;;18.50;82.20;;;;;;11361802;25;20237;-68
2024/04/09 01:14:04;;;;;;;14.98;4.60;;;18.50;83.00;;;;;;11362814;25;20264;-68
2024/04/09 01:19:09;;;;;;;15.23;4.95;;;18.40;81.30;;;;;;11360441;25;20229;-69
2024/04/09 01:24:18;;;;;;;15.13;4.45;;;18.50;80.10;;;;;;11353637;25;20708;-68
2024/04/09 01:29:23;;;;;;;16.70;4.90;;;18.50;79.00;;;;;;11339932;25;20228;-68
2024/04/09 01:34:29;;;;;;;20.30;4.75;;;18.60;78.80;;;;;;11341785;25;20913;-68
2024/04/09 01:39:37;;;;;;;16.60;5.32;;;18.60;78.80;;;;;;11334036;25;20293;-68
2024/04/09 01:44:44;;;;;;;13.50;5.03;;;18.60;78.90;;;;;;11339273;25;20257;-69
2024/04/09 01:49:49;;;;;;;18.48;4.95;;;18.60;79.00;;;;;;11337270;25;20313;-67
2024/04/09 01:54:58;;;;;;;18.13;5.60;;;18.60;79.20;;;;;;11337692;25;20310;-68
2024/04/09 02:00:11;;;;;;;19.45;5.10;;;18.50;79.40;;;;;;11340563;25;20241;-68
2024/04/09 02:05:18;;;;;;;13.13;4.57;;;18.50;79.50;;;;;;11342823;25;21849;-68
2024/04/09 02:10:27;;;;;;;15.60;4.90;;;18.50;79.60;;;;;;11339009;25;20237;-67
2024/04/09 02:15:34;;;;;;;25.13;4.55;;;18.40;80.00;;;;;;11325889;25;22766;-68
2024/04/09 02:20:41;;;;;;;15.00;5.00;;;18.30;80.00;;;;;;11329645;25;22249;-68
2024/04/09 02:25:50;;;;;;;15.13;3.95;;;18.30;80.10;;;;;;11346827;25;20354;-69
2024/04/09 02:30:56;;;;;;;16.50;4.82;;;18.30;80.50;;;;;;11390763;25;20237;-68
2024/04/09 02:36:03;;;;;;;13.82;4.45;;;18.20;80.70;;;;;;11385686;25;21932;-70
2024/04/09 02:41:14;;;;;;;14.05;4.38;;;18.10;80.40;;;;;;11383617;25;20281;-70
2024/04/09 02:46:19;;;;;;;12.45;4.20;;;18.10;80.50;;;;;;11389483;25;22177;-70
2024/04/09 02:51:25;;;;;;;20.38;5.45;;;18.10;80.50;;;;;;11399096;25;20480;-69
2024/04/09 02:56:34;;;;;;;14.27;4.20;;;18.10;80.80;;;;;;11372232;25;20341;-70
2024/04/09 03:01:39;;;;;;;19.23;5.18;;;18.00;81.00;;;;;;11387069;25;20294;-69
2024/04/09 03:06:45;;;;;;;15.98;4.63;;;18.00;81.50;;;;;;11365900;25;20286;-69
2024/04/09 03:11:53;;;;;;;17.35;4.65;;;18.00;81.40;;;;;;11370900;25;20236;-68
2024/04/09 03:16:59;;;;;;;18.20;4.80;;;17.90;81.60;;;;;;11363873;25;20620;-69
2024/04/09 03:22:04;;;;;;;14.50;4.68;;;17.80;82.90;;;;;;11374247;25;20740;-68
2024/04/09 03:27:12;;;;;;;14.23;5.47;;;17.80;82.00;;;;;;11377764;25;20229;-70
2024/04/09 03:32:18;;;;;;;17.20;5.07;;;17.70;81.90;;;;;;11369344;25;20350;-69
2024/04/09 03:37:23;;;;;;;10.40;4.10;;;17.70;82.50;;;;;;11361298;25;20234;-68
2024/04/09 03:42:31;;;;;;;14.48;5.20;;;17.70;82.20;;;;;;11362620;25;20299;-69
2024/04/09 03:47:36;;;;;;;12.68;5.10;;;17.60;82.50;;;;;;11350786;25;21912;-68
2024/04/09 03:52:42;;;;;;;15.20;4.50;;;17.60;82.60;;;;;;11351959;25;20680;-68
2024/04/09 03:57:50;;;;;;;10.27;4.38;;;17.50;82.70;;;;;;11343796;25;21951;-69
2024/04/09 04:02:55;;;;;;;14.18;4.88;;;17.50;83.20;;;;;;11342543;25;20233;-69
2024/04/09 04:08:01;;;;;;;12.15;4.35;;;17.50;83.10;;;;;;11343898;25;20307;-68
2024/04/09 04:13:09;;;;;;;16.25;4.28;;;17.40;83.30;;;;;;11343646;25;20339;-70
2024/04/09 04:18:14;;;;;;;10.10;3.63;;;17.40;83.60;;;;;;11340201;25;20654;-68
2024/04/09 04:23:20;;;;;;;12.15;3.85;;;17.40;83.20;;;;;;11355133;25;20332;-67
2024/04/09 04:28:28;;;;;;;10.85;3.80;;;17.40;82.70;;;;;;11350158;25;22498;-68
2024/04/09 04:33:33;;;;;;;11.35;3.10;;;17.40;83.30;;;;;;11335986;25;20230;-69
2024/04/09 04:38:40;;;;;;;13.07;2.92;;;17.40;83.20;;;;;;11334903;25;20234;-68
2024/04/09 04:43:50;;;;;;;10.50;2.90;;;17.40;83.70;;;;;;11339307;25;21163;-69
2024/04/09 04:48:55;;;;;;;9.00;2.55;;;17.40;84.00;;;;;;11341728;25;20600;-69
2024/04/09 04:54:01;;;;;;;8.02;2.97;;;17.30;84.40;;;;;;11337352;25;20325;-67
2024/04/09 04:59:09;;;;;;;7.38;2.25;;;17.30;84.00;;;;;;11336760;25;20302;-68
2024/04/09 05:04:14;;;;;;;7.03;2.55;;;17.30;84.40;;;;;;11271264;25;20269;-66
2024/04/09 05:09:20;;;;;;;10.15;3.05;;;17.30;85.60;;;;;;11298398;25;20238;-66
2024/04/09 05:14:28;;;;;;;12.38;3.10;;;17.20;85.70;;;;;;11300503;25;20238;-66
2024/04/09 05:19:36;;;;;;;6.75;2.67;;;17.20;85.60;;;;;;11299092;25;20942;-66
2024/04/09 05:24:44;;;;;;;6.88;2.88;;;17.10;86.50;;;;;;11301783;25;20234;-66
2024/04/09 05:29:55;;;;;;;8.77;2.95;;;17.10;86.70;;;;;;11304879;25;20809;-67
2024/04/09 05:35:00;;;;;;;7.53;2.55;;;17.00;87.10;;;;;;11305770;25;20238;-66
2024/04/09 05:40:08;;;;;;;7.75;2.30;;;17.00;87.50;;;;;;11306668;25;21043;-67
2024/04/09 05:45:20;;;;;;;4.68;1.90;;;17.00;86.50;;;;;;11301881;25;20725;-66
2024/04/09 05:50:26;;;;;;;7.30;2.15;;;16.90;87.90;;;;;;11301836;25;20230;-66
2024/04/09 05:55:31;;;;;;;3.63;2.08;;;16.90;88.10;;;;;;11303340;25;20921;-67
2024/04/09 06:00:41;;;;;;;5.32;2.22;;;16.80;88.20;;;;;;11306437;25;20339;-67
2024/04/09 06:05:46;;;;;;;5.22;2.20;;;16.80;88.90;;;;;;11299595;25;20242;-67
2024/04/09 06:10:52;;;;;;;8.27;2.53;;;16.80;89.40;;;;;;11299024;25;20226;-68
2024/04/09 06:16:00;;;;;;;5.63;2.47;;;16.70;89.60;;;;;;11201772;25;20344;-68
2024/04/09 06:21:05;;;;;;;5.88;2.13;;;16.70;89.80;;;;;;11297874;25;20295;-67
2024/04/09 06:26:11;;;;;;;5.25;2.80;;;16.70;89.40;;;;;;11300148;25;20773;-67
2024/04/09 06:31:19;;;;;;;5.32;2.88;;;16.70;89.90;;;;;;11300151;25;20299;-68
2024/04/09 06:36:25;;;;;;;6.75;3.60;;;16.60;90.10;;;;;;11298605;25;20232;-67
2024/04/09 06:41:31;;;;;;;5.22;4.00;;;16.60;90.20;;;;;;11296294;25;20228;-67
2024/04/09 06:46:40;;;;;;;7.10;5.18;;;16.60;90.00;;;;;;11297827;25;20593;-67
2024/04/09 06:51:45;;;;;;;6.78;5.38;;;16.60;90.50;;;;;;11299486;25;20234;-68
2024/04/09 06:56:51;;;;;;;8.30;5.90;;;16.60;90.50;;;;;;11296329;25;20302;-67
2024/04/09 07:01:59;;;;;;;3.97;2.00;;;16.50;90.70;;;;;;11299992;25;20863;-67
2024/04/09 07:07:04;;;;;;;4.40;1.95;;;16.40;90.30;;;;;;11308521;25;20815;-67
2024/04/09 07:12:10;;;;;;;3.72;1.70;;;16.10;89.90;;;;;;11301163;25;22079;-67
2024/04/09 07:17:18;;;;;;;2.40;1.50;;;15.80;90.50;;;;;;11307551;25;20995;-67
2024/04/09 07:22:25;;;;;;;3.38;1.65;;;15.50;90.60;;;;;;11309922;25;20234;-67
2024/04/09 07:27:30;;;;;;;5.07;3.22;;;15.40;90.90;;;;;;11306794;25;20600;-66
2024/04/09 07:32:38;;;;;;;6.05;4.90;;;15.30;90.90;;;;;;11306520;25;20230;-66
2024/04/09 07:37:44;;;;;;;6.65;5.90;;;15.20;91.30;;;;;;11308477;25;22053;-66
2024/04/09 07:42:49;;;;;;;7.57;5.40;;;15.10;91.20;;;;;;11308229;25;20342;-67
2024/04/09 07:47:57;;;;;;;7.25;3.78;;;15.00;91.20;;;;;;11305108;25;20226;-66
2024/04/09 07:53:03;;;;;;;4.35;2.40;;;14.90;91.40;;;;;;11307031;25;20426;-66
2024/04/09 07:58:08;;;;;;;4.18;1.23;;;14.80;91.00;;;;;;11311107;25;20243;-67
2024/04/09 08:03:18;;;;;;;1.70;0.90;;;14.70;90.90;;;;;;11311937;25;20238;-66
2024/04/09 08:08:24;;;;;;;5.88;1.85;;;14.60;90.30;;;;;;11307493;25;22405;-66
2024/04/09 08:13:30;;;;;;;3.33;1.20;;;14.50;90.40;;;;;;11311459;25;20238;-66
2024/04/09 08:18:38;;;;;;;5.57;1.75;;;14.50;90.70;;;;;;11308905;25;20230;-66
2024/04/09 08:23:44;;;;;;;5.18;1.25;;;14.40;90.40;;;;;;11309564;25;20226;-66
2024/04/09 08:28:50;;;;;;;4.53;1.10;;;14.40;90.30;;;;;;11311517;25;20226;-66
2024/04/09 08:33:58;;;;;;;5.55;2.05;;;14.60;90.30;;;;;;11311759;25;20349;-66
2024/04/09 08:39:04;;;;;;;5.57;1.20;;;14.60;90.60;;;;;;11312237;25;20230;-66
2024/04/09 08:44:11;;;;;;;4.07;1.20;;;14.70;90.60;;;;;;11313967;25;20233;-67
2024/04/09 08:49:19;;;;;;;5.00;1.73;;;14.70;90.50;;;;;;11311783;25;20230;-67
2024/04/09 08:54:25;;;;;;;5.10;1.42;;;14.70;90.30;;;;;;11217008;25;20341;-67
2024/04/09 08:59:32;;;;;;;4.00;1.30;;;14.80;90.20;;;;;;11312103;25;21533;-67
2024/04/09 09:04:40;;;;;;;3.70;1.33;;;14.80;89.70;;;;;;11308412;25;20336;-66
2024/04/09 09:09:47;;;;;;;4.95;1.33;;;14.80;89.50;;;;;;11305285;25;20241;-66
2024/04/09 09:15:00;;;;;;;2.55;1.30;;;14.90;90.10;;;;;;11303435;25;20681;-67
2024/04/09 09:20:16;;;;;;;3.25;1.13;;;15.00;90.00;;;;;;11295422;25;20242;-67
2024/04/09 09:25:23;;;;;;;3.67;1.27;;;15.10;88.20;;;;;;11307395;25;20233;-67
2024/04/09 09:30:29;;;;;;;6.60;2.17;;;15.20;87.80;;;;;;11301703;25;20237;-67
2024/04/09 09:35:38;;;;;;;2.45;0.90;;;15.20;87.40;;;;;;11305975;25;20234;-67
2024/04/09 09:40:45;;;;;;;4.03;1.27;;;15.20;86.30;;;;;;11205247;25;20234;-67
2024/04/09 09:45:51;;;;;;;2.50;0.90;;;15.20;85.30;;;;;;11300451;25;20341;-67
2024/04/09 09:50:59;;;;;;;3.83;1.23;;;15.10;84.50;;;;;;11300911;25;20342;-67
2024/04/09 09:56:09;;;;;;;4.43;1.15;;;15.10;84.50;;;;;;11302496;25;20245;-68
2024/04/09 10:01:15;;;;;;;3.42;0.82;;;15.00;84.50;;;;;;11304644;25;22132;-69
2024/04/09 10:06:30;;;;;;;3.17;0.88;;;14.90;84.60;;;;;;11307601;25;20345;-69
2024/04/09 10:11:44;;;;;;;2.50;1.00;;;14.90;85.20;;;;;;11301686;25;20237;-66
2024/04/09 10:16:50;;;;;;;2.05;0.80;;;14.80;81.10;;;;;;11304035;25;20235;-66
2024/04/09 10:21:59;;;;;;;5.05;1.00;;;14.90;80.70;;;;;;11308071;25;20239;-66
2024/04/09 10:27:04;;;;;;;3.10;1.25;;;15.10;79.50;;;;;;11309970;25;20334;-66
2024/04/09 10:32:15;;;;;;;3.30;1.30;;;15.30;79.80;;;;;;11312235;25;20238;-66
2024/04/09 10:37:23;;;;;;;4.53;1.27;;;15.40;78.20;;;;;;11307600;25;20229;-67
2024/04/09 10:42:28;;;;;;;3.20;1.00;;;15.60;78.80;;;;;;11308309;25;20334;-68
2024/04/09 10:47:34;;;;;;;5.60;1.55;;;15.80;77.30;;;;;;11308987;25;20465;-67
2024/04/09 10:52:43;;;;;;;2.53;0.80;;;15.80;76.80;;;;;;11307759;25;20815;-67
2024/04/09 10:57:53;;;;;;;3.90;1.10;;;15.80;75.30;;;;;;11308349;25;20859;-67
2024/04/09 11:03:00;;;;;;;2.38;0.80;;;15.90;74.40;;;;;;11309416;25;20299;-67
2024/04/09 11:08:10;;;;;;;4.35;1.13;;;15.80;74.70;;;;;;11306781;25;20225;-67
2024/04/09 11:13:16;;;;;;;3.30;1.20;;;15.90;74.30;;;;;;11306879;25;20343;-68
2024/04/09 11:18:24;;;;;;;4.85;0.88;;;15.80;73.50;;;;;;11304344;25;20325;-68
2024/04/09 11:23:33;;;;;;;4.78;1.00;;;15.80;74.30;;;;;;11300947;25;20922;-67
2024/04/09 11:28:39;;;;;;;3.42;1.23;;;15.80;73.90;;;;;;11300171;25;20234;-68
2024/04/09 11:33:47;;;;;;;4.03;0.98;;;15.90;74.50;;;;;;11309121;25;22545;-67
2024/04/09 11:38:56;;;;;;;1.60;0.90;;;16.10;75.10;;;;;;11308009;25;20249;-67
2024/04/09 11:44:01;;;;;;;4.57;1.30;;;16.30;75.00;;;;;;11310710;25;20329;-68
2024/04/09 11:49:07;;;;;;;7.40;1.30;;;16.50;74.60;;;;;;11310173;25;20222;-67
2024/04/09 11:54:16;;;;;;;3.30;1.20;;;16.60;72.70;;;;;;11308393;25;20708;-68
2024/04/09 11:59:23;;;;;;;3.92;1.45;;;16.60;72.00;;;;;;11308517;25;20313;-68
2024/04/09 12:04:28;;;;;;;3.20;1.17;;;16.40;71.70;;;;;;11307905;25;21538;-68
2024/04/09 12:09:37;;;;;;;4.68;1.00;;;16.50;71.20;;;;;;11307255;25;20233;-68
2024/04/09 12:14:42;;;;;;;3.45;1.00;;;16.60;71.20;;;;;;11307567;25;20230;-67
2024/04/09 12:19:48;;;;;;;3.42;0.90;;;17.10;70.80;;;;;;11304236;25;20303;-67
2024/04/09 12:24:56;;;;;;;4.60;1.20;;;17.30;69.70;;;;;;11293574;25;21097;-66
2024/04/09 12:30:02;;;;;;;4.40;1.10;;;17.40;69.70;;;;;;11288913;25;20906;-68
2024/04/09 12:35:08;;;;;;;5.13;1.08;;;17.50;67.80;;;;;;11302626;25;20336;-67
2024/04/09 12:40:16;;;;;;;3.25;0.90;;;17.90;68.60;;;;;;11301496;25;20226;-67
2024/04/09 12:45:21;;;;;;;4.03;1.00;;;17.80;68.10;;;;;;11289936;25;20886;-68
2024/04/09 12:50:27;;;;;;;5.97;1.60;;;17.80;68.10;;;;;;11288257;25;20234;-68
2024/04/09 12:55:35;;;;;;;5.45;1.33;;;18.10;68.70;;;;;;11290232;25;21302;-68
2024/04/09 13:00:41;;;;;;;5.50;1.13;;;18.10;65.80;;;;;;11289427;25;20357;-68
2024/04/09 13:06:07;;;;;;;5.75;0.98;;;18.00;64.90;;;;;;11288259;25;20237;-68
2024/04/09 13:11:15;;;;;;;4.97;1.30;;;17.60;61.50;;;;;;11287496;25;21613;-69
2024/04/09 13:16:21;;;;;;;4.78;1.17;;;17.30;61.80;;;;;;11287326;25;20346;-67
2024/04/09 13:21:29;;;;;;;3.50;0.95;;;17.00;62.00;;;;;;11286296;25;20226;-69
2024/04/09 13:26:38;;;;;;;4.47;1.00;;;16.80;63.20;;;;;;11286202;25;21141;-67
2024/04/09 13:31:43;;;;;;;5.90;1.10;;;16.80;62.90;;;;;;11286326;25;20737;-66
2024/04/09 13:36:49;;;;;;;6.38;1.30;;;16.90;64.60;;;;;;11285453;25;20900;-66
2024/04/09 13:41:57;;;;;;;2.72;0.90;;;17.20;63.70;;;;;;11287809;25;20568;-66
2024/04/09 13:47:02;;;;;;;5.20;1.00;;;17.20;63.30;;;;;;11287397;25;20589;-68
2024/04/09 13:52:08;;;;;;;3.60;0.85;;;17.20;61.40;;;;;;11286632;25;20292;-67
2024/04/09 13:57:16;;;;;;;3.70;0.85;;;17.50;61.20;;;;;;11285836;25;20918;-68
2024/04/09 14:02:22;;;;;;;5.78;1.10;;;18.20;60.90;;;;;;11283034;25;20234;-67
2024/04/09 14:07:28;;;;;;;6.68;1.10;;;18.20;59.80;;;;;;11284783;25;20300;-67
2024/04/09 14:12:36;;;;;;;5.25;1.17;;;18.30;58.30;;;;;;11284842;25;20240;-68
2024/04/09 14:17:52;;;;;;;3.97;1.02;;;18.80;60.20;;;;;;11283224;25;21560;-68
2024/04/09 14:22:59;;;;;;;5.05;1.20;;;18.80;58.50;;;;;;11283832;25;21591;-68
2024/04/09 14:28:08;;;;;;;6.80;1.00;;;18.60;60.60;;;;;;11286804;25;20246;-68
2024/04/09 14:33:13;;;;;;;6.70;1.13;;;18.30;59.00;;;;;;11286942;25;20302;-68
2024/04/09 14:38:19;;;;;;;5.60;1.02;;;18.10;58.20;;;;;;11287904;25;20230;-68
2024/04/09 14:43:27;;;;;;;5.10;0.90;;;18.10;60.30;;;;;;11284234;25;20242;-68
2024/04/09 14:48:34;;;;;;;3.75;1.08;;;18.00;58.30;;;;;;11283237;25;21760;-68
2024/04/09 14:53:40;;;;;;;4.75;1.13;;;17.80;58.30;;;;;;11299380;25;20269;-66
2024/04/09 14:58:48;;;;;;;6.82;1.08;;;17.70;57.40;;;;;;11296630;25;20234;-66
2024/04/09 15:03:54;;;;;;;3.92;1.00;;;17.50;58.40;;;;;;11297619;25;20237;-66
2024/04/09 15:09:00;;;;;;;5.65;1.38;;;17.30;57.70;;;;;;11299059;25;20322;-66
2024/04/09 15:14:08;;;;;;;4.63;1.02;;;17.10;58.10;;;;;;11302360;25;20302;-66
2024/04/09 15:19:19;;;;;;;4.22;0.95;;;16.90;59.30;;;;;;11300187;25;21769;-65
2024/04/09 15:24:24;;;;;;;2.00;1.10;;;16.90;58.10;;;;;;11292325;25;20250;-67
2024/04/09 15:29:32;;;;;;;3.67;0.95;;;16.70;58.70;;;;;;11301054;25;20985;-65
2024/04/09 15:34:38;;;;;;;2.88;0.90;;;16.50;58.10;;;;;;11303887;25;20234;-68
2024/04/09 15:39:43;;;;;;;4.05;1.00;;;16.40;57.90;;;;;;11234310;25;21171;-67
2024/04/09 15:44:52;;;;;;;5.45;1.30;;;16.30;58.10;;;;;;11304387;25;20361;-67
2024/04/09 15:49:57;;;;;;;4.72;1.10;;;16.10;57.90;;;;;;11300397;25;20321;-66
2024/04/09 15:55:03;;;;;;;3.63;0.90;;;16.00;60.60;;;;;;11302740;25;22716;-67
2024/04/09 16:00:14;;;;;;;4.38;0.80;;;16.00;58.80;;;;;;11303808;25;20230;-67
2024/04/09 16:05:20;;;;;;;2.90;1.05;;;16.20;60.60;;;;;;11302080;25;20684;-69
2024/04/09 16:10:26;;;;;;;2.40;0.90;;;16.40;60.20;;;;;;11300994;25;20829;-67
2024/04/09 16:15:34;;;;;;;2.88;1.05;;;16.30;59.30;;;;;;11303276;25;20897;-67
2024/04/09 16:20:39;;;;;;;1.98;0.82;;;16.10;58.00;;;;;;11308622;25;20242;-68
2024/04/09 16:25:45;;;;;;;2.38;0.90;;;15.90;60.60;;;;;;11310388;25;20364;-67
2024/04/09 16:30:53;;;;;;;4.80;0.75;;;15.80;59.00;;;;;;11309091;25;20234;-67
2024/04/09 16:35:58;;;;;;;2.00;0.80;;;15.60;59.00;;;;;;11311595;25;20337;-69
2024/04/09 16:41:04;;;;;;;4.22;1.10;;;15.60;59.10;;;;;;11313009;25;20230;-67
2024/04/09 16:46:13;;;;;;;6.88;1.05;;;15.60;59.60;;;;;;11310263;25;20242;-68
2024/04/09 16:51:18;;;;;;;2.40;0.80;;;15.50;58.90;;;;;;11310001;25;20613;-68
2024/04/09 16:56:23;;;;;;;4.45;1.10;;;15.60;60.10;;;;;;11308349;25;20238;-67
2024/04/09 17:01:32;;;;;;;4.55;1.10;;;15.60;59.90;;;;;;11307550;25;20226;-67
2024/04/09 17:06:39;;;;;;;4.60;1.00;;;15.40;59.20;;;;;;11308710;25;20762;-69
2024/04/09 17:11:45;;;;;;;6.38;1.52;;;15.30;59.80;;;;;;11307940;25;20234;-67
2024/04/09 17:16:53;;;;;;;3.00;0.93;;;15.30;60.10;;;;;;11310299;25;20732;-68
2024/04/09 17:21:59;;;;;;;1.98;0.95;;;15.10;59.20;;;;;;11304628;25;20234;-69
2024/04/09 17:27:05;;;;;;;2.88;1.02;;;15.00;59.70;;;;;;11307862;25;20334;-68
2024/04/09 17:32:13;;;;;;;4.68;1.30;;;15.10;61.00;;;;;;11304527;25;20337;-67
2024/04/09 17:37:18;;;;;;;6.70;1.27;;;15.10;60.80;;;;;;11315595;25;20298;-64
2024/04/09 17:42:24;;;;;;;4.53;0.95;;;15.00;60.40;;;;;;11315708;25;20234;-62
2024/04/09 17:47:32;;;;;;;3.15;1.05;;;15.00;60.40;;;;;;11311094;25;20656;-61
2024/04/09 17:52:38;;;;;;;2.72;1.00;;;14.90;60.70;;;;;;11312294;25;20361;-63
2024/04/09 17:57:43;;;;;;;3.40;0.90;;;14.90;61.00;;;;;;11308525;25;20230;-63
2024/04/09 18:02:52;;;;;;;1.98;0.80;;;14.80;61.30;;;;;;11310927;25;20590;-69
2024/04/09 18:07:58;;;;;;;6.05;3.60;;;14.80;62.20;;;;;;11308066;25;20314;-66
2024/04/09 18:13:04;;;;;;;3.42;1.40;;;14.60;64.60;;;;;;11308647;25;20326;-66
2024/04/09 18:18:12;;;;;;;1.38;1.15;;;14.10;67.80;;;;;;11306486;25;20226;-66
2024/04/09 18:23:21;;;;;;;16.80;12.93;;;13.80;67.90;;;;;;11308937;25;20338;-65
2024/04/09 18:28:27;;;;;;;25.65;20.05;;;13.70;70.00;;;;;;11308825;25;22015;-66
2024/04/09 18:33:35;;;;;;;14.85;10.88;;;13.50;69.40;;;;;;11309600;25;20333;-66
2024/04/09 18:38:41;;;;;;;5.05;2.90;;;13.50;70.50;;;;;;11307385;25;20257;-66
2024/04/09 18:43:46;;;;;;;4.00;1.60;;;13.40;70.30;;;;;;11309632;25;20999;-66
2024/04/09 18:48:54;;;;;;;3.50;1.35;;;13.40;70.70;;;;;;11308485;25;20225;-66
2024/04/09 18:54:01;;;;;;;4.30;1.38;;;13.40;71.50;;;;;;11308263;25;21938;-67
2024/04/09 18:59:06;;;;;;;10.82;5.18;;;13.30;71.40;;;;;;11305511;25;20223;-66
2024/04/09 19:04:14;;;;;;;6.45;3.10;;;13.30;70.90;;;;;;11307762;25;20237;-66
2024/04/09 19:09:20;;;;;;;5.53;2.13;;;13.20;70.60;;;;;;11306626;25;20326;-66
2024/04/09 19:14:25;;;;;;;4.97;2.13;;;13.20;70.50;;;;;;11305737;25;20333;-65
2024/04/09 19:19:34;;;;;;;5.53;1.80;;;13.20;70.50;;;;;;11304847;25;20326;-65
2024/04/09 19:24:39;;;;;;;8.15;4.47;;;13.20;70.20;;;;;;11306153;25;20234;-67
2024/04/09 19:29:45;;;;;;;8.02;4.75;;;13.20;70.00;;;;;;11302598;25;20321;-65
2024/04/09 19:34:54;;;;;;;8.80;4.18;;;13.20;69.40;;;;;;11209824;25;20234;-65
2024/04/09 19:40:00;;;;;;;2.78;1.17;;;13.20;69.80;;;;;;11299997;25;20326;-66
2024/04/09 19:45:06;;;;;;;3.45;0.70;;;13.30;69.50;;;;;;11306645;25;20291;-61
2024/04/09 19:50:15;;;;;;;3.42;1.00;;;13.30;70.20;;;;;;11315975;25;20233;-62
2024/04/09 19:55:22;;;;;;;1.92;0.88;;;13.30;69.30;;;;;;11331849;25;20886;-66
2024/04/09 20:00:28;;;;;;;4.07;0.98;;;13.30;69.80;;;;;;11217340;25;20321;-66
2024/04/09 20:05:36;;;;;;;4.40;1.58;;;13.30;69.70;;;;;;11310093;25;20261;-69
2024/04/09 20:10:43;;;;;;;2.10;0.80;;;13.20;70.60;;;;;;11339362;25;20230;-65
2024/04/09 20:15:51;;;;;;;3.25;1.52;;;13.20;70.20;;;;;;11424148;25;20281;-64
2024/04/09 20:20:59;;;;;;;4.93;1.20;;;13.20;69.90;;;;;;11426594;25;20282;-65
2024/04/09 20:26:04;;;;;;;6.25;1.40;;;13.20;70.10;;;;;;11419780;25;20242;-65
2024/04/09 20:31:13;;;;;;;3.45;0.98;;;13.20;70.00;;;;;;11417025;25;20232;-65
2024/04/09 20:36:21;;;;;;;5.32;1.13;;;13.20;70.60;;;;;;11414988;25;20226;-66
2024/04/09 20:41:26;;;;;;;4.18;1.40;;;13.20;70.00;;;;;;11359767;25;20229;-62
2024/04/09 20:46:32;;;;;;;5.00;1.27;;;13.10;70.00;;;;;;11319205;25;20334;-65
2024/04/09 20:51:40;;;;;;;4.70;1.17;;;13.10;71.00;;;;;;11334432;25;20233;-64
2024/04/09 20:56:48;;;;;;;4.22;1.70;;;13.00;70.90;;;;;;11332103;25;20233;-63
2024/04/09 21:01:54;;;;;;;4.80;1.50;;;13.10;70.50;;;;;;11327252;25;20338;-61
2024/04/09 21:07:02;;;;;;;8.85;3.75;;;13.10;70.70;;;;;;11328563;25;20328;-60
2024/04/09 21:12:07;;;;;;;7.57;3.03;;;13.00;72.80;;;;;;11340948;25;20241;-60
2024/04/09 21:17:13;;;;;;;7.22;2.60;;;12.80;73.60;;;;;;11342876;25;20601;-61
2024/04/09 21:22:21;;;;;;;3.85;1.95;;;12.70;74.80;;;;;;11342833;25;20329;-61
2024/04/09 21:27:27;;;;;;;4.22;2.10;;;12.50;73.90;;;;;;11345089;25;20318;-62
2024/04/09 21:32:32;;;;;;;5.07;2.00;;;12.50;74.40;;;;;;11342472;25;20697;-59
2024/04/09 21:37:41;;;;;;;7.50;2.50;;;12.50;75.00;;;;;;11340118;25;20230;-63
2024/04/09 21:42:46;;;;;;;5.20;1.70;;;12.50;75.50;;;;;;11304706;25;20400;-64
2024/04/09 21:47:52;;;;;;;4.40;1.67;;;12.40;75.90;;;;;;11306121;25;20234;-63
2024/04/09 21:53:00;;;;;;;5.22;2.13;;;12.50;75.00;;;;;;11307035;25;22200;-63
2024/04/09 21:58:06;;;;;;;5.55;1.75;;;12.40;76.50;;;;;;11310340;25;20258;-64
2024/04/09 22:03:12;;;;;;;6.18;1.40;;;12.40;76.60;;;;;;11310579;25;20336;-62
2024/04/09 22:08:21;;;;;;;5.32;1.73;;;12.40;76.20;;;;;;11311692;25;22364;-65
2024/04/09 22:13:26;;;;;;;6.32;1.83;;;12.40;77.60;;;;;;11308333;25;20234;-68
2024/04/09 22:18:32;;;;;;;6.93;1.73;;;12.40;76.70;;;;;;11297314;25;21695;-67
2024/04/09 22:23:40;;;;;;;5.00;1.90;;;12.40;77.80;;;;;;11296944;25;20396;-69
2024/04/09 22:28:45;;;;;;;3.13;1.70;;;12.40;76.70;;;;;;11204005;25;20238;-68
2024/04/09 22:33:51;;;;;;;6.18;2.00;;;12.40;76.10;;;;;;11298582;25;20234;-66
2024/04/09 22:38:59;;;;;;;7.93;1.92;;;12.30;77.20;;;;;;11297651;25;22137;-67
2024/04/09 22:44:04;;;;;;;7.13;2.00;;;12.30;77.20;;;;;;11296950;25;20342;-67
2024/04/09 22:49:10;;;;;;;7.60;1.75;;;12.20;77.20;;;;;;11298265;25;20226;-68
2024/04/09 22:54:19;;;;;;;10.57;2.33;;;12.10;77.10;;;;;;11300116;25;20342;-69
2024/04/09 22:59:24;;;;;;;10.85;2.08;;;12.00;76.70;;;;;;11266319;25;20329;-67
2024/04/09 23:04:30;;;;;;;9.40;2.08;;;12.10;77.90;;;;;;11298307;25;20234;-67
2024/04/09 23:09:43;;;;;;;7.68;2.30;;;12.10;77.00;;;;;;11299074;25;20246;-66
2024/04/09 23:14:51;;;;;;;10.52;2.88;;;12.10;77.20;;;;;;11300220;25;20393;-67
2024/04/09 23:19:57;;;;;;;9.38;2.50;;;12.10;77.20;;;;;;11297271;25;20327;-69
2024/04/09 23:25:05;;;;;;;7.93;2.13;;;12.10;77.30;;;;;;11295605;25;20237;-65
2024/04/09 23:30:12;;;;;;;10.65;2.10;;;12.10;77.30;;;;;;11296534;25;21613;-69
2024/04/09 23:35:17;;;;;;;8.95;2.85;;;12.10;77.30;;;;;;11297020;25;20709;-68
2024/04/09 23:40:25;;;;;;;9.68;2.28;;;12.10;76.90;;;;;;11295681;25;20237;-66
2024/04/09 23:45:31;;;;;;;9.10;2.85;;;12.00;76.70;;;;;;11295578;25;20229;-67
2024/04/09 23:50:36;;;;;;;11.95;2.67;;;12.00;76.30;;;;;;11297063;25;20492;-66
2024/04/09 23:55:45;;;;;;;10.35;2.60;;;12.00;76.50;;;;;;11300832;25;20350;-63
